Airport View

Enter AWOS ICAO identifier for current METAR.

ex. KFNL

KHBI 011250Z AUTO 00000KT 10SM CLR 13/13 A3002 RMK AO2 T01330126

1 Oct 2020 12:53

Frequency: 119.275

Phone: 336-626-7933

Other Area AWOS: KVUJ - KSCR - KEXX - KGSO

TAF KGSO 011120Z 0112/0212 23008KT P6SM SKC FM020000 33010KT 6SM -SHRA BKN045 OVC090